Historyczne dane pomiarowe

Dodano dane terminowe – wersja testowa.

Dane z okresu 1951-2019

Wersja bazy: 1.34 [2019-03-16, lista zmian], aktualizacja planowana na 2019-04-15

Dane meteo z obszaru Polski uzyskane na podstawie danych udostępnionych przez Instytut Meteorologii i Gospodarki Wodnej – Państwowy Instytut Badawczy.

 

Wybierz Datę:    

       

TemperaturaWilgotnośćWiatrCiśnienieOpadyŚniegCzas trwania zjawisk
 Stacja t tx tn tng RH VA  wxwx mslp ppp RRR   cm mm wxwxwxwxwxwxwx
1987-08-14 15.5 21.6 11.0--- 5.7 1.0---- 0.0------------
1987-08-13 11.8 17.9 6.5--- 4.0 3.0---- 0.0------------
1987-08-12 12.0 18.0 8.5--- 5.0 5.3---- 0.0------------
1987-08-11 12.8 18.5 11.3--- 6.0 6.3---- 2.2------------
1987-08-10 15.2 19.9 11.4--- 8.0 1.3---- 14.3------------
1987-08-09 14.7 23.8 6.1--- 5.3 2.7---- 0.0------------
1987-08-08 14.5 19.0 11.3--- 5.0 2.0---- 0.0------------
1987-08-07 12.8 19.6 6.8--- 4.3 3.7---- 0.4------------
1987-08-06 11.9 16.8 9.6--- 6.3 3.0---- 0.0------------
1987-08-05 14.1 18.4 10.3--- 6.3 1.0---- 0.0------------
1987-08-04 14.4 22.0 5.8--- 5.3 5.7---- 0.0------------
1987-08-03 13.4 18.6 8.7--- 4.0 3.3---- 0.0------------
1987-08-02 14.9 18.8 13.8--- 6.0 3.7---- 0.4------------
1987-08-01 16.4 20.5 12.3--- 4.3 3.7---- 6.6------------
1987-07-31 18.2 23.9 11.8--- 4.3 2.3---- 1.0------------
1987-07-30 16.3 23.4 7.6--- 3.3 2.0---- 0.0------------
1987-07-29 13.6 18.5 9.6--- 4.3 3.0---- 0.0------------
1987-07-28 13.7 17.2 8.3--- 7.3 2.7---- 1.5------------
1987-07-27 13.2 17.5 9.3--- 3.3 4.3---- 0.6------------
1987-07-26 16.1 20.8 11.5--- 8.0 1.0---- 4.2------------
1987-07-25 21.2 25.5 17.3--- 4.3 1.0---- 0.0------------
1987-07-24 21.3 26.8 16.5--- 5.7 2.7---- 5.7------------
1987-07-23 22.5 28.4 15.3--- 2.0 1.0---- 2.8------------
1987-07-22 21.5 26.0 14.8--- 2.3 2.0---- 0.0------------
1987-07-21 20.3 26.8 13.5--- 2.7 0.3---- 0.0------------
1987-07-20 23.2 30.0 18.4--- 5.0 2.3---- 0.0------------
1987-07-19 21.0 26.5 16.7--- 5.0 4.0---- 0.0------------
1987-07-18 22.2 28.5 16.3--- 4.0 2.7---- 0.0------------
1987-07-17 19.1 28.8 11.7--- 5.7 2.3---- 13.8------------
1987-07-16 17.9 26.0 6.8--- 3.3 0.7---- 0.0------------
1987-07-15 16.1 22.9 5.7--- 3.0 0.7---- 0.0------------
1987-07-14 15.6 21.5 9.2--- 1.0 2.3---- 0.0------------
1987-07-13 18.7 24.5 15.0--- 3.0 1.7---- 0.0------------
1987-07-12 22.0 27.8 14.6--- 2.7 5.0---- 0.5------------
1987-07-11 16.6 22.4 6.4--- 3.0 2.7---- 0.0------------
1987-07-10 15.1 19.3 12.3--- 2.3 4.0---- 0.0------------
1987-07-09 21.3 27.8 16.4--- 4.3 6.3---- 7.8------------
1987-07-08 21.3 29.0 9.2--- 0.7 3.0---- 0.0------------
1987-07-07 17.6 25.0 6.9--- 0.3 1.7---- 0.0------------
1987-07-06 15.5 21.2 7.2--- 1.3 1.3---- 0.0------------
1987-07-05 16.4 21.0 11.0--- 3.0 3.3---- 0.0------------
1987-07-04 18.3 22.5 10.3--- 4.7 0.3---- 0.0------------
1987-07-03 18.4 22.6 16.1--- 6.0 0.7---- 0.0------------
1987-07-02 20.6 27.6 16.8--- 6.0 2.0---- 0.0------------
1987-07-01 25.1 31.6 15.3--- 1.0 1.3---- 0.0------------
1987-06-30 23.1 28.2 15.6--- 2.3 2.7---- 0.0------------
1987-06-29 19.1 25.0 13.0--- 3.7 2.0---- 0.0------------
1987-06-28 19.9 25.2 13.5--- 4.7 3.3---- 0.0------------
1987-06-27 19.7 25.2 10.8--- 3.3 2.7---- 0.0------------
1987-06-26 15.8 22.5 4.9--- 0.7 3.3---- 0.0------------
1987-06-25 14.0 19.4 9.7--- 3.3 4.3---- 0.0------------
1987-06-24 15.9 20.6 10.2--- 4.7 6.0---- 0.0------------
1987-06-23 16.2 22.5 9.9--- 4.7 1.7---- 12.1------------
1987-06-22 17.9 23.2 11.2--- 1.7 1.3---- 0.0------------
1987-06-21 16.9 24.1 7.3--- 3.3 2.3---- 0.0------------
1987-06-20 15.1 21.8 4.9--- 2.3 3.3---- 0.0------------
1987-06-19 11.9 17.6 7.8--- 4.7 1.3---- 0.0------------
1987-06-18 12.0 18.5 5.8--- 4.0 1.7---- 1.0------------
1987-06-17 10.9 14.6 10.0--- 6.0 1.3---- 1.7------------
1987-06-16 17.8 25.9 11.4--- 3.0 5.3---- 0.5------------
1578.9 ms

 

Źródłem pochodzenia danych jest Instytut Meteorologii i Gospodarki Wodnej – Państwowy Instytut Badawczy. Dane Instytutu Meteorologii i Gospodarki Wodnej – Państwowego Instytutu Badawczego zostały przetworzone.

Dane źródłowe można odnaleźć na stronie https://dane.imgw.pl